Create Custom Reports and Graphics: Custom Report

Scotts Valley

Current Conditions

11/28/22 4:15 AM (-08:00)
Updated Every 15 Minutes
Temp 36.7 °F   12.7
RH 93 %   2
Dew Pt 35.0 °F   12.1
Wet Bulb 36.0 °F   12.5
Wind Dir ESE | 117 °
Wind Spd 1.0 mph   0.6
Wind Gust 3.2 mph   2.1
BatVolt 12.6 V   0.0
Month Precip 1.76 In
Season Precip 3.73 In

Today & Yesterday

Midnight to Midnight

11/28/22 4:15 AM (-08:00)
Updated Every 15 Minutes
Daily Max Temp 39.2 °F   11.9
Time of Max Temp 0257
Daily Min Temp 30.0 °F   6.3
Time of Min Temp 0152
Daily Max Wind 4.8 mph   2.6
Time of Max Wind 0015
Max Wind Dir W | 262 °
Daily Rain 0.00 In
Daily Leaf Wet Hrs 3.8 hrs   3.8
Yest MaxT 67.0 °F
Yest MinT 22.0 °F
Yest MaxGst 6.5 mph
Yest Precip 0.00 In
Leaf Wet Hrs Yest 0.5 Hours

Last 7 Days

Scotts Valley

Hourly Data | America/Los_Angeles
as of 11/28/22 4:25 AM PST
Date & Time Temp (°F) RH (%) Dew Pt (°F) Wind Dir (°) Wind Spd (mph) Wind Gust (mph) Leaf Wet (mins) BatVolt (V) Latest Rain (In) Daily Rain (In) Daily Min Temp (°F) Daily Max Temp (°F) Daily Max Wind (mph) Daily Leaf Wet Hrs (hrs)
11/28/22 - 0400 38.4 92 36.3 SW | 216 0.9 3.7 60.0 12.6 0.00 0.00 30.0 39.2 4.8 3.5
11/28/22 - 0300 35.0 96 34.0 WSW | 241 0.8 4.1 60.0 12.6 0.00 0.00 30.0 39.2 4.8 2.5
11/28/22 - 0200 30.7 94 29.0 SE | 141 0.7 3.9 60.0 12.6 0.00 0.00 30.0 32.1 4.8 1.5
11/28/22 - 0100 31.3 93 29.5 N | 11 0.8 4.8 31.1 12.7 0.00 0.00 30.4 32.1 4.8 0.5
11/28/22 - 0000 30.4 92 28.5 NNE | 13 0.7 3.8 0.0 12.7 0.00 0.00 22.0 67.0 6.5 0.5
11/27/22 - 2300 30.8 91 28.6 NE | 43 0.8 3.6 0.0 12.8 0.00 0.00 22.0 67.0 6.5 0.5
11/27/22 - 2200 31.9 89 29.1 SW | 220 0.8 3.5 0.0 12.8 0.00 0.00 22.0 67.0 6.5 0.5
11/27/22 - 2100 33.8 86 30.0 SW | 232 0.7 5.2 0.0 12.9 0.00 0.00 22.0 67.0 6.5 0.5
11/27/22 - 2000 37.3 79 31.5 ESE | 114 0.4 5.6 0.0 13.0 0.00 0.00 22.0 67.0 6.5 0.5
11/27/22 - 1900 42.0 71 33.2 NNE | 20 0.8 2.8 0.0 13.1 0.00 0.00 22.0 67.0 6.5 0.5
11/27/22 - 1800 49.7 57 34.8 WSW | 239 1.3 5.7 0.0 13.2 0.00 0.00 22.0 67.0 6.5 0.5
11/27/22 - 1700 58.2 43 35.8 SW | 224 1.9 6.2 0.0 13.3 0.00 0.00 22.0 67.0 6.5 0.5
11/27/22 - 1600 65.2 31 33.4 SE | 129 2.2 6.4 0.0 13.4 0.00 0.00 22.0 67.0 6.5 0.5
11/27/22 - 1500 66.2 32 35.2 N | 7 1.6 6.5 0.0 13.4 0.00 0.00 22.0 67.0 6.5 0.5
11/27/22 - 1400 64.5 37 37.8 ESE | 117 2.5 6.5 0.0 13.5 0.00 0.00 22.0 66.6 6.5 0.5
11/27/22 - 1300 62.0 42 38.8 NE | 48 2.0 6.4 0.0 13.6 0.00 0.00 22.0 63.6 6.4 0.5
11/27/22 - 1200 57.8 51 39.5 NE | 41 1.5 4.4 0.0 13.6 0.00 0.00 22.0 59.9 4.6 0.5
11/27/22 - 1100 53.4 58 38.8 ESE | 108 1.5 4.6 0.0 13.7 0.00 0.00 22.0 55.6 4.6 0.5
11/27/22 - 1000 46.0 75 38.1 SSE | 160 1.4 4.1 0.0 13.8 0.00 0.00 22.0 50.7 4.1 0.5
11/27/22 - 0900 32.5 97 31.9 SSW | 205 0.5 2.3 27.5 13.9 0.00 0.00 22.0 39.6 2.3 0.5
11/27/22 - 0800 22.8 95 21.6 SW | 226 0.2 2.0 0.3 14.1 0.00 0.00 22.0 27.4 2.2 0.0
11/27/22 - 0700 22.4 94 21.1 NW | 324 0.1 1.3 0.0 12.5 0.00 0.00 22.0 27.4 2.2 0.0
11/27/22 - 0600 23.0 95 21.7 SSE | 166 0.3 1.5 0.0 12.5 0.00 0.00 22.5 27.4 2.2 0.0
11/27/22 - 0500 23.6 95 22.4 SE | 132 0.1 1.1 0.0 12.6 0.00 0.00 23.3 27.4 2.2 0.0
11/27/22 - 0400 24.4 95 23.2 SSW | 201 0.2 1.6 0.0 12.6 0.00 0.00 23.7 27.4 2.2 0.0
11/27/22 - 0300 25.0 96 24.1 S | 181 0.3 1.8 0.0 12.6 0.00 0.00 24.8 27.4 2.2 0.0
11/27/22 - 0200 25.6 96 24.5 SW | 217 0.4 2.2 0.0 12.6 0.00 0.00 25.0 27.4 2.2 0.0
11/27/22 - 0100 26.3 95 25.1 SSW | 205 0.3 1.6 0.0 12.7 0.00 0.00 25.7 27.4 1.6 0.0
11/27/22 - 0000 27.4 94 25.9 NE | 50 0.3 2.3 56.4 12.7 0.00 0.00 26.9 67.8 7.1 1.5
11/26/22 - 2300 28.5 92 26.6 S | 169 0.5 2.1 32.4 12.8 0.00 0.00 28.0 67.8 7.1 0.5
11/26/22 - 2200 30.4 90 27.8 SW | 220 0.5 2.5 0.0 12.8 0.00 0.00 29.1 67.8 7.1 0.0
11/26/22 - 2100 32.3 87 28.9 S | 184 0.4 1.8 0.0 12.9 0.00 0.00 29.1 67.8 7.1 0.0
11/26/22 - 2000 34.8 82 29.7 SSE | 161 0.5 2.1 0.0 13.0 0.00 0.00 29.1 67.8 7.1 0.0
11/26/22 - 1900 38.5 74 31.0 S | 177 0.1 1.6 0.0 13.1 0.00 0.00 29.1 67.8 7.1 0.0
11/26/22 - 1800 44.7 64 33.2 WSW | 248 0.5 2.5 0.0 13.2 0.00 0.00 29.1 67.8 7.1 0.0
11/26/22 - 1700 58.1 41 33.6 WSW | 255 0.6 2.1 0.0 13.3 0.00 0.00 29.1 67.8 7.1 0.0
11/26/22 - 1600 65.6 28 31.8 ESE | 107 1.9 5.9 0.0 13.4 0.00 0.00 29.1 67.8 7.1 0.0
11/26/22 - 1500 67.0 27 32.2 SE | 127 3.1 7.1 0.0 13.4 0.00 0.00 29.1 67.8 7.1 0.0
11/26/22 - 1400 67.0 28 33.1 SSE | 151 2.7 6.9 0.0 13.5 0.00 0.00 29.1 67.8 6.9 0.0
11/26/22 - 1300 65.0 31 33.7 SSE | 167 1.6 5.4 0.0 13.5 0.00 0.00 29.1 66.4 5.4 0.0
11/26/22 - 1200 61.5 35 33.3 NNE | 15 1.7 5.0 0.0 13.5 0.00 0.00 29.1 63.1 5.0 0.0
11/26/22 - 1100 57.4 41 33.9 NE | 46 1.6 4.4 0.0 13.6 0.00 0.00 29.1 59.6 4.4 0.0
11/26/22 - 1000 51.5 54 35.5 NW | 322 0.9 3.3 0.0 13.7 0.00 0.00 29.1 55.0 3.3 0.0
11/26/22 - 0900 39.9 81 34.4 E | 80 0.7 2.5 0.0 13.8 0.00 0.00 29.1 46.9 2.8 0.0
11/26/22 - 0800 30.8 93 29.0 S | 170 0.4 2.2 0.0 13.7 0.00 0.00 29.1 36.7 2.8 0.0
11/26/22 - 0700 34.4 87 31.0 WSW | 252 0.7 2.8 0.0 12.5 0.00 0.00 29.1 36.7 2.8 0.0
11/26/22 - 0600 36.4 85 32.5 S | 174 0.4 2.3 0.0 12.5 0.00 0.00 29.1 36.7 2.3 0.0
11/26/22 - 0500 35.8 86 32.1 E | 79 0.6 2.2 0.0 12.6 0.00 0.00 29.1 36.2 2.2 0.0
11/26/22 - 0400 34.9 87 31.3 S | 183 0.5 2.1 0.0 12.6 0.00 0.00 29.1 35.5 2.2 0.0
11/26/22 - 0300 32.8 91 30.4 NNW | 338 0.3 1.9 0.0 12.6 0.00 0.00 29.1 34.3 2.2 0.0
11/26/22 - 0200 29.5 91 27.1 SSE | 151 0.4 2.0 0.0 12.6 0.00 0.00 29.1 32.9 2.2 0.0
11/26/22 - 0100 31.3 86 27.7 S | 187 0.5 2.2 0.0 12.7 0.00 0.00 29.9 32.9 2.2 0.0
11/26/22 - 0000 33.7 82 28.9 SW | 223 0.1 1.3 0.0 12.7 0.00 0.00 24.6 70.0 6.9 0.0
11/25/22 - 2300 34.6 79 28.8 SSE | 153 0.2 1.3 0.0 12.8 0.00 0.00 24.6 70.0 6.9 0.0
11/25/22 - 2200 36.6 73 28.8 SE | 142 0.2 1.8 0.0 12.8 0.00 0.00 24.6 70.0 6.9 0.0
11/25/22 - 2100 38.0 72 29.7 SE | 129 0.2 1.3 0.0 12.9 0.00 0.00 24.6 70.0 6.9 0.0
11/25/22 - 2000 36.5 71 28.1 SSE | 156 0.3 1.8 0.0 13.0 0.00 0.00 24.6 70.0 6.9 0.0
11/25/22 - 1900 40.4 61 27.9 NNE | 23 0.2 1.4 0.0 13.1 0.00 0.00 24.6 70.0 6.9 0.0
11/25/22 - 1800 48.3 46 28.5 SSW | 194 0.9 3.7 0.0 13.2 0.00 0.00 24.6 70.0 6.9 0.0
11/25/22 - 1700 59.4 30 27.8 SW | 227 1.8 5.3 0.0 13.3 0.00 0.00 24.6 70.0 6.9 0.0
11/25/22 - 1600 67.2 21 26.0 S | 175 2.4 6.8 0.0 13.4 0.00 0.00 24.6 70.0 6.9 0.0
11/25/22 - 1500 68.3 20 26.1 E | 92 2.0 6.9 0.0 13.4 0.00 0.00 24.6 70.0 6.9 0.0
11/25/22 - 1400 67.0 22 26.7 ESE | 103 2.3 5.8 0.0 13.5 0.00 0.00 24.6 68.7 6.4 0.0
11/25/22 - 1300 64.3 25 28.1 E | 99 2.3 6.4 0.0 13.5 0.00 0.00 24.6 66.9 6.4 0.0
11/25/22 - 1200 63.2 28 29.2 SE | 135 2.2 6.1 0.0 13.5 0.00 0.00 24.6 65.3 6.1 0.0
11/25/22 - 1100 58.0 38 32.6 NNE | 30 1.2 4.6 0.0 13.6 0.00 0.00 24.6 61.3 4.6 0.0
11/25/22 - 1000 48.6 55 32.8 WSW | 254 1.0 4.1 0.0 13.7 0.00 0.00 24.6 55.0 4.1 0.0
11/25/22 - 0900 36.2 81 30.9 NE | 40 1.2 3.8 0.0 13.9 0.00 0.00 24.6 40.9 3.8 0.0
11/25/22 - 0800 26.6 93 24.9 S | 178 0.6 2.5 0.0 13.5 0.00 0.00 24.6 29.3 3.3 0.0
11/25/22 - 0700 25.5 93 23.8 SSW | 195 0.3 1.9 0.0 12.5 0.00 0.00 24.6 29.1 3.3 0.0
11/25/22 - 0600 25.3 92 23.2 SW | 215 0.4 2.2 0.0 12.5 0.00 0.00 24.6 29.1 3.3 0.0
11/25/22 - 0500 26.4 90 24.0 E | 99 1.1 3.1 0.0 12.5 0.00 0.00 25.7 29.1 3.3 0.0
11/25/22 - 0400 27.4 88 24.4 S | 186 0.7 2.2 0.0 12.6 0.00 0.00 26.5 29.1 3.3 0.0
11/25/22 - 0300 28.6 88 25.4 SE | 146 0.7 2.8 0.0 12.6 0.00 0.00 27.3 29.1 3.3 0.0
11/25/22 - 0200 27.8 87 24.4 ESE | 111 0.8 3.3 0.0 12.6 0.00 0.00 27.3 28.5 3.3 0.0
11/25/22 - 0100 28.0 86 24.4 S | 178 0.8 3.0 0.0 12.7 0.00 0.00 27.5 28.5 3.0 0.0
11/25/22 - 0000 28.9 84 24.7 E | 95 0.9 3.3 0.0 12.7 0.00 0.00 23.1 73.8 7.5 3.0
11/24/22 - 2300 29.9 82 25.0 S | 176 0.7 3.1 0.0 12.8 0.00 0.00 23.1 73.8 7.5 3.0
11/24/22 - 2200 31.3 78 25.4 SE | 139 0.9 3.1 0.0 12.8 0.00 0.00 23.1 73.8 7.5 3.0
11/24/22 - 2100 33.0 74 25.6 ENE | 76 0.8 3.0 0.0 12.9 0.00 0.00 23.1 73.8 7.5 3.0
11/24/22 - 2000 35.6 67 25.8 SSE | 160 0.6 2.4 0.0 13.0 0.00 0.00 23.1 73.8 7.5 3.0
11/24/22 - 1900 40.5 58 26.9 SSE | 167 0.8 3.3 0.0 13.1 0.00 0.00 23.1 73.8 7.5 3.0
11/24/22 - 1800 48.5 43 27.0 ENE | 78 0.7 2.6 0.0 13.2 0.00 0.00 23.1 73.8 7.5 3.0
11/24/22 - 1700 64.4 23 25.6 E | 94 1.1 7.2 0.0 13.3 0.00 0.00 23.1 73.8 7.5 3.0
11/24/22 - 1600 72.2 15 22.0 SE | 132 1.9 6.4 0.0 13.4 0.00 0.00 23.1 73.8 7.5 3.0
11/24/22 - 1500 73.1 14 21.8 SSE | 149 2.8 7.5 0.0 13.4 0.00 0.00 23.1 73.6 7.5 3.0
11/24/22 - 1400 72.4 15 22.5 SSE | 157 2.2 5.8 0.0 13.4 0.00 0.00 23.1 73.5 6.4 3.0
11/24/22 - 1300 68.4 24 29.5 S | 169 1.8 5.6 0.0 13.5 0.00 0.00 23.1 70.5 6.4 3.0
11/24/22 - 1200 66.0 22 25.6 ENE | 71 2.3 6.4 0.0 13.5 0.00 0.00 23.1 67.1 6.4 3.0
11/24/22 - 1100 59.4 31 28.2 NE | 35 0.9 3.6 0.0 13.6 0.00 0.00 23.1 64.1 5.2 3.0
11/24/22 - 1000 48.8 54 32.7 ENE | 65 0.9 3.3 0.0 13.8 0.00 0.00 23.1 54.5 5.2 3.0
11/24/22 - 0900 34.7 91 32.2 ESE | 120 0.6 2.4 20.5 13.8 0.00 0.00 23.1 41.8 5.2 3.0
11/24/22 - 0800 24.3 96 23.4 E | 101 0.9 3.6 4.9 14.0 0.00 0.00 23.1 28.6 5.2 2.6
11/24/22 - 0700 24.2 96 23.1 SSW | 201 0.9 3.2 0.0 12.5 0.00 0.00 23.6 28.6 5.2 2.5
11/24/22 - 0600 24.9 96 24.0 SE | 125 0.6 2.8 0.0 12.5 0.00 0.00 24.3 28.6 5.2 2.5
11/24/22 - 0500 25.7 97 25.0 WNW | 284 1.3 5.2 0.0 12.6 0.00 0.00 24.9 28.6 5.2 2.5
11/24/22 - 0400 25.8 97 25.1 ESE | 113 0.9 4.5 0.0 12.6 0.00 0.00 25.4 28.6 4.5 2.5
11/24/22 - 0300 26.2 97 25.4 ESE | 116 0.7 2.4 31.9 12.6 0.00 0.00 25.7 28.6 3.2 2.5
11/24/22 - 0200 27.0 96 26.2 SSE | 147 0.6 3.2 60.0 12.7 0.00 0.00 26.4 28.6 3.2 2.0
11/24/22 - 0100 27.8 96 26.8 WSW | 237 0.8 3.0 60.0 12.7 0.00 0.00 27.1 28.6 3.0 1.0
11/24/22 - 0000 29.0 95 27.8 E | 95 0.5 2.5 60.0 12.7 0.00 0.00 24.8 72.2 6.9 5.9
11/23/22 - 2300 30.7 94 29.1 SSE | 158 0.7 3.2 60.0 12.8 0.00 0.00 24.8 72.2 6.9 4.9
11/23/22 - 2200 32.2 93 30.2 SE | 134 0.7 3.6 33.2 12.9 0.00 0.00 24.8 72.2 6.9 3.9
11/23/22 - 2100 34.4 90 31.7 S | 189 1.0 3.4 0.0 12.9 0.00 0.00 24.8 72.2 6.9 3.3
11/23/22 - 2000 36.8 87 33.3 W | 270 0.9 4.4 0.0 13.0 0.00 0.00 24.8 72.2 6.9 3.3
11/23/22 - 1900 40.3 80 34.7 E | 100 0.8 3.5 0.0 13.1 0.00 0.00 24.8 72.2 6.9 3.3
11/23/22 - 1800 46.8 68 36.9 S | 177 0.5 2.5 0.0 13.2 0.00 0.00 24.8 72.2 6.9 3.3
11/23/22 - 1700 61.0 40 35.6 SSW | 199 0.9 2.8 0.0 13.3 0.00 0.00 24.8 72.2 6.9 3.3
11/23/22 - 1600 69.5 30 36.9 SE | 141 1.7 4.8 0.0 13.4 0.00 0.00 24.8 72.2 6.9 3.3
11/23/22 - 1500 70.2 35 41.6 ESE | 117 1.3 4.8 0.0 13.4 0.00 0.00 24.8 72.2 6.9 3.3
11/23/22 - 1400 67.2 41 42.4 SSE | 152 2.0 5.0 0.0 13.5 0.00 0.00 24.8 69.8 6.9 3.3
11/23/22 - 1300 63.7 48 43.8 ESE | 104 2.4 6.9 0.0 13.6 0.00 0.00 24.8 65.1 6.9 3.3
11/23/22 - 1200 61.0 53 43.6 ENE | 68 1.4 5.4 0.0 13.5 0.00 0.00 24.8 62.2 5.4 3.3
11/23/22 - 1100 55.7 62 42.8 ESE | 105 1.0 3.7 0.0 13.6 0.00 0.00 24.8 59.8 3.7 3.3
11/23/22 - 1000 47.8 83 42.8 SE | 142 0.8 3.2 0.0 13.8 0.00 0.00 24.8 52.4 3.5 3.3
11/23/22 - 0900 34.7 99 34.4 S | 184 0.6 2.3 25.0 13.8 0.00 0.00 24.8 41.2 3.5 3.3
11/23/22 - 0800 25.7 97 24.9 SW | 228 0.5 3.1 3.0 14.0 0.00 0.00 24.8 32.4 3.5 2.9
11/23/22 - 0700 25.3 96 24.3 SSW | 213 0.3 2.2 0.0 12.5 0.00 0.00 24.9 32.4 3.5 2.9
11/23/22 - 0600 26.2 96 25.4 WSW | 255 0.3 1.9 0.0 12.6 0.00 0.00 25.7 32.4 3.5 2.9
11/23/22 - 0500 26.8 97 26.0 W | 279 0.1 1.3 0.0 12.6 0.00 0.00 26.4 32.4 3.5 2.9
11/23/22 - 0400 28.0 97 27.3 ENE | 59 0.7 2.1 0.0 12.6 0.00 0.00 27.3 32.4 3.5 2.9
11/23/22 - 0300 28.9 97 28.2 ESE | 122 0.6 3.5 51.9 12.7 0.00 0.00 28.2 32.4 3.5 2.9
11/23/22 - 0200 29.6 97 28.8 WSW | 246 0.3 2.2 60.0 12.7 0.00 0.00 28.8 32.4 2.3 2.0
11/23/22 - 0100 31.3 96 30.4 SW | 224 0.5 2.3 60.0 12.7 0.00 0.00 30.4 32.4 2.3 1.0
11/23/22 - 0000 33.4 96 32.3 SSW | 210 0.3 2.0 60.0 12.8 0.00 0.00 23.1 68.1 10.0 2.8
11/22/22 - 2300 35.8 93 34.0 E | 99 0.3 2.8 50.8 12.8 0.00 0.00 23.1 68.1 10.0 1.8
11/22/22 - 2200 38.8 91 36.3 SSE | 158 1.1 3.3 0.0 12.9 0.00 0.00 23.1 68.1 10.0 1.0
11/22/22 - 2100 41.5 88 38.2 SW | 235 1.8 6.8 0.0 13.0 0.00 0.00 23.1 68.1 10.0 1.0
11/22/22 - 2000 42.8 82 37.8 SSW | 210 0.9 3.3 0.0 13.1 0.00 0.00 23.1 68.1 10.0 1.0
11/22/22 - 1900 50.7 68 40.7 W | 259 0.7 3.4 0.0 13.2 0.00 0.00 23.1 68.1 10.0 1.0
11/22/22 - 1800 54.2 62 41.5 NW | 320 1.0 7.3 0.0 13.2 0.00 0.00 23.1 68.1 10.0 1.0
11/22/22 - 1700 59.3 52 41.6 W | 259 1.8 7.6 0.0 13.4 0.00 0.00 23.1 68.1 10.0 1.0
11/22/22 - 1600 65.1 43 41.9 W | 262 3.0 10.0 0.0 13.5 0.00 0.00 23.1 68.1 10.0 1.0
11/22/22 - 1500 66.2 37 39.5 SE | 138 2.1 7.6 0.0 13.4 0.00 0.00 23.1 68.1 8.7 1.0
11/22/22 - 1400 65.7 37 39.0 ESE | 117 2.5 8.7 0.0 13.5 0.00 0.00 23.1 67.1 8.7 1.0
11/22/22 - 1300 60.9 42 37.8 SE | 131 1.4 5.3 0.0 13.6 0.00 0.00 23.1 65.3 6.4 1.0
11/22/22 - 1200 59.1 44 37.2 SE | 138 1.8 6.4 0.0 13.6 0.00 0.00 23.1 61.2 6.4 1.0
11/22/22 - 1100 52.5 51 34.6 NE | 40 1.2 3.5 0.0 13.7 0.00 0.00 23.1 56.6 3.8 1.0
11/22/22 - 1000 45.8 68 35.6 NE | 39 0.9 3.8 0.0 13.8 0.00 0.00 23.1 50.6 3.8 1.0
11/22/22 - 0900 32.5 94 31.0 SSW | 200 0.4 1.8 29.3 13.9 0.00 0.00 23.1 38.8 2.3 1.0
11/22/22 - 0800 25.3 96 24.4 WSW | 240 0.4 2.3 0.0 13.7 0.00 0.00 23.1 26.9 2.3 0.5
11/22/22 - 0700 23.4 95 22.2 E | 80 0.2 2.1 0.0 12.5 0.00 0.00 23.1 26.9 2.1 0.5
11/22/22 - 0600 23.8 96 22.7 W | 263 0.3 1.8 0.0 12.5 0.00 0.00 23.5 26.9 1.8 0.5
11/22/22 - 0500 24.1 96 23.1 SSE | 166 0.3 1.8 0.0 12.6 0.00 0.00 23.7 26.9 1.8 0.5
11/22/22 - 0400 24.7 96 23.7 SSE | 161 0.3 1.8 0.0 12.6 0.00 0.00 24.3 26.9 1.8 0.5
11/22/22 - 0300 24.8 95 23.6 SSE | 147 0.1 1.5 0.0 12.6 0.00 0.00 24.5 26.9 1.8 0.5
11/22/22 - 0200 25.4 94 23.8 ENE | 76 0.2 1.8 30.1 12.7 0.00 0.00 24.9 26.9 1.8 0.5
11/22/22 - 0100 26.3 93 24.4 ESE | 112 0.2 1.5 0.0 12.7 0.00 0.00 25.7 26.9 1.5 0.0
11/22/22 - 0000 27.3 91 25.0 E | 91 0.3 1.5 0.0 12.8 0.00 0.00 18.2 67.5 5.6 0.5
11/21/22 - 2300 27.9 89 25.2 SSW | 198 0.3 1.5 0.0 12.8 0.00 0.00 18.2 67.5 5.6 0.5
11/21/22 - 2200 29.2 87 25.8 SW | 221 0.2 1.6 0.0 12.9 0.00 0.00 18.2 67.5 5.6 0.5
11/21/22 - 2100 31.2 83 26.6 SW | 228 0.4 2.3 0.0 13.0 0.00 0.00 18.2 67.5 5.6 0.5
11/21/22 - 2000 33.6 77 27.0 SSE | 150 0.2 1.8 0.0 13.0 0.00 0.00 18.2 67.5 5.6 0.5
11/21/22 - 1900 36.8 69 27.5 ENE | 74 0.3 1.8 0.0 13.1 0.00 0.00 18.2 67.5 5.6 0.5
11/21/22 - 1800 43.4 56 28.8 SW | 236 0.3 1.8 0.0 13.2 0.00 0.00 18.2 67.5 5.6 0.5
11/21/22 - 1700 57.0 32 26.5 SSE | 154 0.8 2.8 0.0 13.4 0.00 0.00 18.2 67.5 5.6 0.5
11/21/22 - 1600 65.4 21 24.9 SSE | 160 1.4 3.8 0.0 13.5 0.00 0.00 18.2 67.5 5.6 0.5
11/21/22 - 1500 65.2 21 24.0 SSE | 152 1.3 4.6 0.0 13.4 0.00 0.00 18.2 67.5 5.6 0.5
11/21/22 - 1400 63.2 24 25.9 SE | 131 2.0 5.2 0.0 13.5 0.00 0.00 18.2 64.2 5.6 0.5
11/21/22 - 1300 60.6 31 29.4 E | 96 1.8 5.6 0.0 13.6 0.00 0.00 18.2 64.1 5.6 0.5
11/21/22 - 1200 56.6 38 31.4 NE | 40 2.0 5.2 0.0 13.6 0.00 0.00 18.2 58.0 5.2 0.5
11/21/22 - 1100 50.4 49 31.9 N | 352 1.3 4.5 0.0 13.7 0.00 0.00 18.2 54.2 4.5 0.5
11/21/22 - 1000 43.7 66 32.8 ENE | 76 0.6 3.4 0.0 13.8 0.00 0.00 18.2 47.4 3.4 0.5
11/21/22 - 0900 30.6 94 29.1 NE | 52 0.1 1.1 27.8 13.9 0.00 0.00 18.2 37.3 1.5 0.5
11/21/22 - 0800 19.8 94 18.4 SSE | 165 0.0 0.7 3.9 14.1 0.00 0.00 18.2 24.7 1.5 0.1
11/21/22 - 0700 18.6 93 16.9 SSE | 151 0.1 1.3 0.0 12.5 0.00 0.00 18.3 22.5 1.5 0.0
11/21/22 - 0600 19.2 93 17.6 ESE | 108 0.1 1.0 0.0 12.5 0.00 0.00 18.8 22.5 1.5 0.0
11/21/22 - 0500 19.4 93 17.8 ESE | 108 0.0 0.7 0.0 12.6 0.00 0.00 19.2 22.5 1.5 0.0
Max 73.1 99 43.8 - 3.1 10.0 60.0 14.1 0.00 0.00 30.4 73.8 10.0 5.9
Avg 41.4 71 29.6 - 0.9 3.5 6.3 13.1 0.00 - - - - -
Min 18.6 14 16.9 - 0.0 0.7 0.0 12.5 0.00 0.00 18.2 22.5 1.5 0.0
Total - - - - - - - - 0.00 - - - - -

Last 30 Days

Scotts Valley

Daily Data | America/Los_Angeles
as of 11/28/22 4:25 AM PST
Date Daily Max Temp (°F) Time of Max Temp Daily Min Temp (°F) Time of Min Temp Daily Rain (In) Month Precip (In) Season Precip (In) Daily Max Wind (mph) Time of Max Wind Max Wind Dir (°) Wind Spd (mph) Dew Pt (°F) Max RH (%) Min RH (%) Daily Leaf Wet Hrs (hrs) Degree Hrs (hrs) Chilling <=45F (hrs) Chill Hrs 32-45F (hrs) Utah Chilling (Units) Chilling <=45F Seas (hrs) Chill Hrs 32-45 Seas (hrs) Utah Chilling Seas (Units) Chill Portions Hrs <= 32F (hrs) Hrs <= 28F (hrs) GDDs (DL) GDDs (Mx/Mn) Seas GDDs (DL) Seas GDDs (Smpl) Hrs 70-85F (hrs) Hrs > 95F (hrs) Powdery Mildew Stress (pts) Bee Hrs Today (Hrs) Storm Total (In) Daily Max Rain Intensity (In/Hr) Time of Max Rain Intensity Max 1 Min Rain (In) Max 1 Min Rain Time Max 15 Min Rain (In) Max 15 Min Precip Time Max 60 Min Rain (In) Max 60 Min Rain Time MinBV Day (V)
11/27/22 67.0 1446 22.0 0715 0.00 1.76 3.73 6.5 1315 ESE | 122 0.9 30.4 99 24 0.5 1.4 15.5 4.5 1.0 410 184 143 17 11.0 8.2 3.3 0.0 - - 0.00 0.00 - 5.7 - - - - - - - - - 12.4
11/26/22 67.8 1343 26.9 2356 0.00 1.76 3.73 7.1 1423 SE | 138 0.9 31.1 100 26 1.5 4.6 15.4 9.0 2.5 395 180 142 17 6.4 1.0 3.9 0.0 - - 0.00 0.00 - 6.5 - - - - - - - - - 12.4
11/25/22 70.0 1446 24.6 0558 0.00 1.76 3.73 6.9 1437 ESE | 111 1.0 27.3 94 18 0.0 7.5 15.4 7.2 2.5 379 171 140 16 8.2 6.0 4.1 0.0 - - 0.02 0.00 - 6.5 - - - - - - - - - 12.4
11/24/22 73.8 1504 23.1 0715 0.00 1.76 3.73 7.5 1437 SSE | 162 1.1 25.8 98 13 3.0 27.0 15.4 4.1 -2.5 364 164 137 16 11.3 7.7 5.3 0.0 - - 3.19 0.00 - 6.5 - - - - - - - - - 12.4
11/23/22 72.2 1446 24.8 0709 0.00 1.76 3.73 6.9 1236 E | 95 0.8 33.4 99 25 5.9 11.8 15.5 5.0 0.5 348 159 140 16 10.5 4.5 4.1 0.0 - - 0.92 0.00 - 6.1 - - - - - - - - - 12.4
11/22/22 68.1 1440 23.1 0628 0.00 1.76 3.73 10.0 1559 WSW | 257 1.0 32.8 98 35 2.8 2.1 14.3 5.8 2.0 333 154 139 15 8.5 8.1 3.5 0.0 - - 0.00 0.00 - 5.6 - - - - - - - - - 12.3
11/21/22 67.5 1454 18.2 0710 0.00 1.76 3.73 5.6 1200 ENE | 62 0.6 24.6 98 19 0.5 0.6 16.2 3.7 0.5 319 149 137 15 12.6 9.9 2.9 0.0 - - 0.00 0.00 - 5.4 - - - - - - - - - 12.4
11/20/22 64.7 1456 15.6 0654 0.00 1.76 3.73 5.8 1207 S | 185 0.6 21.8 98 19 0.5 0.0 16.7 2.7 1.0 302 145 136 14 14.0 12.4 2.5 0.0 - - 0.00 0.00 - 5.2 - - - - - - - - - 12.4
11/19/22 65.0 1435 16.6 0641 0.00 1.76 3.73 6.5 1330 S | 181 0.6 20.2 98 14 0.6 0.0 16.6 2.5 1.5 286 142 136 14 14.1 12.6 2.5 0.0 - - 0.00 0.00 - 5.3 - - - - - - - - - 12.4
11/18/22 70.0 1508 22.2 2358 0.00 1.76 3.73 7.1 1222 ESE | 116 1.0 28.0 99 17 2.3 6.3 15.8 3.9 -1.0 269 140 134 13 11.9 5.8 3.7 0.0 - - 0.02 0.00 - 6.2 - - - - - - - - - 12.4
11/17/22 69.7 1416 22.7 0523 0.00 1.76 3.73 9.2 1319 W | 267 0.9 28.5 98 21 3.8 4.7 15.7 4.0 0.5 253 136 135 13 11.7 7.9 3.4 0.0 - - 0.00 0.00 - 5.8 - - - - - - - - - 12.3
11/16/22 70.0 1406 18.6 0557 0.00 1.76 3.73 5.7 1321 S | 179 0.7 24.3 98 11 1.5 9.5 16.3 3.6 -0.5 238 132 134 13 12.7 10.1 3.7 0.0 - - 0.01 0.00 - 5.8 - - - - - - - - - 12.4
11/15/22 68.5 1409 20.1 0714 0.00 1.76 3.73 7.0 1225 S | 175 0.9 26.6 99 19 2.8 4.5 16.2 3.0 -0.5 221 128 135 12 13.2 11.3 3.4 0.0 - - 0.00 0.00 - 5.8 - - - - - - - - - 12.4
11/14/22 59.8 1438 20.1 0716 0.00 1.76 3.73 13.9 1327 ESE | 112 1.0 26.7 99 30 2.6 0.0 16.5 3.1 3.5 205 125 136 12 13.4 11.6 1.7 0.0 - - 0.00 0.00 - 4.7 - - - - - - - - - 12.4
11/13/22 61.7 1446 22.5 0619 0.00 1.76 3.73 7.6 1319 E | 88 0.9 27.6 99 24 3.9 0.0 16.8 3.2 2.0 189 122 132 11 13.6 11.5 1.8 0.0 - - 0.00 0.00 - 4.4 - - - - - - - - - 12.5
11/12/22 57.4 1406 27.1 0711 0.01 1.76 3.73 13.8 1505 WNW | 282 1.5 34.2 100 35 11.7 0.0 16.0 8.5 9.5 172 119 130 11 7.4 1.6 1.0 0.0 - - 0.00 0.00 - 2.5 - 0.01 1547 0.01 1548 0.01 1548 0.01 1548 12.4
11/11/22 61.9 1407 24.5 0638 0.00 1.75 3.72 7.7 1450 E | 88 0.6 32.4 100 29 5.3 0.0 16.6 8.2 8.0 156 110 120 10 8.4 8.1 1.7 0.0 - - 0.00 0.00 - 3.8 - - - - - - - - - 12.4
11/10/22 58.6 1503 23.9 0523 0.00 1.75 3.72 6.7 1403 E | 93 0.6 31.9 100 44 8.0 0.0 18.7 6.9 6.0 139 102 114 9 11.8 7.3 0.8 0.0 - - 0.00 0.00 - 1.9 - - - - - - - - - 12.4
11/9/22 56.2 1436 27.6 2359 0.00 1.75 3.72 11.0 1324 NNW | 343 1.2 34.7 100 45 10.9 0.0 15.6 11.3 9.0 121 95 108 9 4.3 0.3 0.8 0.0 - - 0.00 0.00 - 1.3 - - - - - - - - - 12.5
11/8/22 48.2 1457 36.4 0501 0.71 1.75 3.72 9.5 1444 NW | 321 1.2 39.1 100 73 21.8 0.0 22.2 22.2 24.0 105 84 98 9 0.0 0.0 0.0 0.0 - - 0.00 0.00 - 0.0 1.61 0.34 0259 0.01 0005 0.06 0312 0.18 0340 12.6
11/7/22 47.3 1155 31.6 0645 0.39 1.04 3.01 15.8 1238 WSW | 258 1.1 37.7 100 75 20.5 0.0 21.5 21.2 20.5 83 62 76 8 0.3 0.0 0.0 0.0 - - 0.00 0.00 - 0.0 0.90 0.60 1246 0.01 0203 0.07 1258 0.18 1340 12.6
11/6/22 57.1 1417 34.7 0721 0.32 0.65 2.62 18.1 2232 WSW | 247 2.3 41.2 100 50 15.3 0.0 10.3 10.3 17.0 61 41 56 7 0.0 0.0 1.1 0.0 - - 0.00 0.00 - 2.1 0.51 0.28 2129 0.01 1737 0.05 2128 0.14 2148 12.5
11/5/22 56.8 1341 44.4 0057 0.19 0.33 2.30 10.3 0158 W | 260 1.1 49.9 99 80 18.5 0.0 0.8 0.8 9.5 51 31 40 7 0.0 0.0 2.5 0.6 - - 0.00 0.00 - 2.8 0.19 0.14 1527 0.01 0904 0.03 1528 0.06 1130 12.6
11/4/22 66.9 1536 29.0 0206 0.00 0.14 2.11 15.6 1412 WSW | 258 1.8 42.9 100 49 4.2 0.2 8.2 6.1 0.0 50 30 32 6 2.1 0.0 5.5 0.0 - - 0.00 0.00 - 7.1 - - - - - - - - - 12.5
11/3/22 62.6 1550 20.4 0745 0.00 0.14 2.11 7.8 1631 SW | 232 0.9 28.1 100 24 2.4 0.0 15.3 5.8 5.0 42 24 32 5 9.5 6.5 1.8 0.0 - - 0.00 0.00 - 4.2 - - - - - - - - - 12.4
11/2/22 55.9 1543 27.3 0805 0.00 0.14 2.11 14.2 1444 W | 264 1.2 33.0 99 44 3.0 0.0 15.2 7.0 10.0 27 18 26 5 8.1 0.5 0.4 0.0 - - 0.00 0.00 - 0.3 - - - - - - - - - 12.5
11/1/22 55.4 1508 29.4 0055 0.14 0.14 2.11 18.1 1533 WSW | 255 2.0 39.9 99 52 13.8 0.0 11.6 10.8 16.5 12 11 16 4 0.9 0.0 0.7 0.0 - - 0.00 0.00 - 0.2 0.14 0.29 0748 0.01 0741 0.05 0754 0.08 0821 12.5
10/31/22 74.4 1558 33.1 0746 0.00 0.00 1.97 10.4 1608 WSW | 239 0.8 37.3 99 29 9.2 24.8 14.1 14.1 4.0 - - - 3 0.0 0.0 5.6 3.7 3,170 2,876 1.98 0.00 0 7.1 - - - - - - - - - 12.4
10/30/22 79.8 1548 26.9 0745 0.00 0.00 1.97 9.1 1557 WSW | 249 0.8 36.1 99 18 4.8 57.3 12.2 6.2 -2.5 - - - 3 6.1 2.4 7.8 3.4 3,164 2,872 5.02 0.00 0 7.8 - - - - - - - - - 12.5
10/29/22 74.4 1413 26.0 0737 0.00 0.00 1.97 13.0 1551 WSW | 240 1.0 34.9 100 20 6.5 28.8 12.2 4.5 -1.5 - - - 3 7.7 5.3 6.4 0.2 3,157 2,869 3.24 0.00 0 7.4 - - - - - - - - - 12.4
Max 79.8 - 44.4 - 0.71 1.76 3.73 18.1 - - 2.3 49.9 100 80 21.8 57.3 22.2 22.2 24.0 - - - 17 14.1 12.6 7.8 3.7 - - 5.02 0.00 - 7.8 1.61 0.60 - 0.01 - 0.07 - 0.18 - 12.6
Avg - - - - - - - - - - 1.0 32.1 - - - - 15.0 7.0 4.9 - - - 10 8.0 5.3 2.9 0.3 - - 0.48 0.00 - 4.5 0.67 - - - - - - - - -
Min 47.3 - 15.6 - 0.00 0.00 1.97 5.6 - - 0.6 20.2 94 11 0.0 0.0 0.8 0.8 -2.5 - - - 3 0.0 0.0 0.0 0.0 - - 0.00 0.00 - 0.0 0.14 0.01 - 0.01 - 0.01 - 0.01 - 12.3
Total - - - - - - - - - - - - - - - - 448.7 209.0 148.0 - - - - 239.8 160.5 86.0 7.9 - - 14.40 0.00 - 133.9 - - - - - - - - - -

Climate Summary

Scotts Valley

Current Year | Showing 1/1/22 - 11/27/22
as of 11/28/22 4:25 AM PST
Temperature (°F) Max Wind Gust (mph) Precip (in) Days
Month Days Avg High Avg Low Max Min Avg Max Total Daily Min Temp < 28 Daily Min Temp < 32 Daily Max Temp > 90 Daily Max Temp > 100 Daily Rain > 0.01 Daily Rain > 0.1
Jan 2022 31 62.3 27.6 72 19.6 10.8 28.3 0.52 18 26 0 0 4 2
Feb 2022 28 67.3 24.7 80.3 14.4 11.1 23 0.11 18 28 0 0 1 1
Mar 2022 31 68.2 31.4 85 21.1 14.9 24.8 0.66 8 15 0 0 5 3
Apr 2022 30 66.5 32.7 88 26.9 15.2 30.8 1.88 2 15 0 0 7 6
May 2022 31 75.2 36.3 95.7 25.3 16.1 25.4 0.08 3 8 2 0 1 0
Jun 2022 30 85.7 43.5 102.7 33.2 15.1 22 0.59 0 0 10 1 2 2
Jul 2022 31 94.5 47.2 105.4 40.4 14.1 17 0 0 0 23 9 0 0
Aug 2022 31 96.8 47.2 107 38.8 13.7 17.9 0.01 0 0 29 10 0 0
Sep 2022 30 90.1 45 115.2 36.5 12.8 21.3 1.96 0 0 15 8 2 2
Oct 2022 31 84.3 36.2 96.7 25.9 10.6 22 0 5 8 15 0 0 0
Nov 2022 27 63 25.1 73.8 15.6 9.7 18.1 1.76 21 24 0 0 5 5
Total 331 - - - - - - 7.57 75 124 94 28 27 21
Average 30.1 77.9 36.3 77.9 36.3 13.2 - 0.69 6.8 11.3 8.5 2.5 2.5 1.9
Maximum 31 96.8 47.2 115.2 - - 30.8 1.96 21 28 29 10 7 6
Minimum 27 62.3 24.7 - 14.4 - - 0 0 0 0 0 0 0

Climate Summary

Scotts Valley

Last Year | Showing 1/1/21 - 12/31/21
as of 11/28/22 4:25 AM PST
Temperature (°F) Max Wind Gust (mph) Precip (in) Days
Month Days Avg High Avg Low Max Min Avg Max Total Daily Min Temp < 28 Daily Min Temp < 32 Daily Max Temp > 90 Daily Max Temp > 100 Daily Rain > 0.01 Daily Rain > 0.1
Jan 2021 31 56.4 31 78.2 16.7 12.1 31.4 3.73 8 20 0 0 16 5
Feb 2021 28 61.3 29.2 73.9 22.3 13.1 21.7 1.92 14 21 0 0 10 5
Mar 2021 31 62 28.2 78.9 22.3 15.1 22 2.2 14 26 0 0 6 5
Apr 2021 30 74.9 32.1 88.8 26.6 15.7 24.1 0.1 4 17 0 0 1 0
May 2021 31 81.7 38.9 102.4 28.8 17.1 26 0.12 0 2 3 1 2 0
Jun 2021 30 90.8 45.7 107.9 30.3 16.2 21.2 0 0 1 18 6 0 0
Jul 2021 31 100 50.1 108.7 42.4 15.1 17.4 0 0 0 31 15 0 0
Aug 2021 31 97.5 47.8 108.7 39 15.2 20.2 0 0 0 27 11 0 0
Sep 2021 30 91.4 42.5 103.3 31.2 13.5 20.1 0.09 0 1 18 4 1 0
Oct 2021 31 71.7 37.7 94.7 28.3 13.4 27 2.06 0 11 4 0 10 6
Nov 2021 30 66.4 33 76.6 22 8.7 16.6 1.76 6 12 0 0 6 4
Dec 2021 31 52.7 30.7 76.2 21.3 12.3 22.4 6.28 13 20 0 0 15 12
Total 365 - - - - - - 18.26 59 131 101 37 67 37
Average 30.4 75.6 37.3 75.6 37.3 14 - 1.52 4.9 10.9 8.4 3.1 5.6 3.1
Maximum 31 100 50.1 108.7 - - 31.4 6.28 14 26 31 15 16 12
Minimum 28 52.7 28.2 - 16.7 - - 0 0 0 0 0 0 0
Calm: 3.1%
Calm: 0.7%